Terminal Aerodrome Forecast
Issued by NWS Sioux Falls, SD

Home | Current Version | Previous Version | Text Only | Print | Product List | Glossary On
Versions: 1 2 3 4 5 6 7 8 9 10 11 12 13 14 15 16 17 18 19 20 21 22
000
FTUS43 KFSD 232330
TAFSUX
TAF
KSUX 232330Z 2400/2424 18016G24KT P6SM FEW250
     FM240300 16010KT P6SM FEW250
     FM240500 16010KT P6SM FEW250 WS014/19045KT
     FM241300 16017G25KT P6SM BKN150
     FM241900 18019G27KT P6SM SCT040 BKN080
     FM242300 20012KT P6SM SCT100=

USA.gov is the U.S. government's official web portal to all federal, state and local government web resources and services.